Time;durP1;ratioP1;P1;durP2;ratioP2;P2;SDS_P1;SDS_P2;PMS_P1;PMS_P2;Temp;Humidity;BMP_temperature;BMP_pressure;BME280_temperature;BME280_humidity;BME280_pressure;Samples;Min_cycle;Max_cycle;Signal;HPM_P1;HPM_P2
2021/05/06 00:33:52;;;;;;;;;;;;;;;;;;3616815;39;20079;-60
2021/05/06 00:36:18;;;;;;;3.63;2.15;;;;;;;;;;3617242;39;20024;-60
2021/05/06 00:38:52;;;;;;;3.25;2.05;;;;;;;;;;3616641;39;20347;-59
2021/05/06 00:44:20;;;;;;;;;;;;;;;;;;3617387;39;20027;-59
2021/05/06 01:03:50;;;;;;;4.55;2.00;;;;;;;;;;3616409;39;20051;-58
2021/05/06 01:06:00;;;;;;;3.88;2.03;;;;;;;;;;3614897;39;20188;-57
2021/05/06 01:08:30;;;;;;;4.47;2.15;;;;;;;;;;3614323;39;20031;-58
2021/05/06 01:13:32;;;;;;;5.25;2.22;;;;;;;;;;3615300;39;20030;-59
2021/05/06 01:15:58;;;;;;;5.43;2.53;;;;;;;;;;3616371;39;20031;-58
2021/05/06 01:18:24;;;;;;;5.25;2.53;;;;;;;;;;3615457;39;20033;-58
2021/05/06 01:20:54;;;;;;;3.88;1.98;;;;;;;;;;3616513;39;20043;-58
2021/05/06 01:23:21;;;;;;;3.72;1.95;;;;;;;;;;3616412;39;20563;-57
2021/05/06 01:25:56;;;;;;;4.45;2.00;;;;;;;;;;3615811;39;20044;-59
2021/05/06 01:28:26;;;;;;;7.88;2.55;;;;;;;;;;3617856;39;20115;-57
2021/05/06 01:31:01;;;;;;;4.78;2.30;;;;;;;;;;3617682;39;20043;-58
2021/05/06 01:33:41;;;;;;;3.33;1.70;;;;;;;;;;3616466;39;20434;-58
2021/05/06 01:36:20;;;;;;;5.82;2.22;;;;;;;;;;3616804;39;20031;-58
2021/05/06 01:43:57;;;;;;;5.88;1.80;;;;;;;;;;3616919;39;20046;-58
2021/05/06 02:00:24;;;;;;;5.00;2.40;;;;;;;;;;3616940;39;20035;-59
2021/05/06 02:02:51;;;;;;;4.60;2.40;;;;;;;;;;3617799;39;20065;-58
2021/05/06 02:05:17;;;;;;;4.72;1.98;;;;;;;;;;3617532;39;20042;-58
2021/05/06 02:07:44;;;;;;;4.25;1.90;;;;;;;;;;3616580;39;20041;-58
2021/05/06 02:10:13;;;;;;;4.53;2.35;;;;;;;;;;3617600;39;20051;-58
2021/05/06 02:12:39;;;;;;;7.93;2.22;;;;;;;;;;3617426;39;20387;-59
2021/05/06 02:15:20;;;;;;;4.85;1.98;;;;;;;;;;3616958;39;20035;-58
2021/05/06 02:17:46;;;;;;;5.05;2.13;;;;;;;;;;3616618;39;20112;-58
2021/05/06 02:20:13;;;;;;;3.35;1.80;;;;;;;;;;3617805;39;20033;-58
2021/05/06 02:22:39;;;;;;;4.82;2.00;;;;;;;;;;3616819;39;20278;-59
2021/05/06 02:25:05;;;;;;;3.92;1.75;;;;;;;;;;3617020;39;20023;-58
2021/05/06 02:27:31;;;;;;;3.75;1.88;;;;;;;;;;3617378;39;20031;-59
2021/05/06 02:29:56;;;;;;;3.92;1.80;;;;;;;;;;3617481;39;20036;-58
2021/05/06 02:32:22;;;;;;;5.28;2.20;;;;;;;;;;3613974;39;20036;-57
2021/05/06 02:34:47;;;;;;;4.20;2.03;;;;;;;;;;3616343;39;20028;-58
2021/05/06 02:37:13;;;;;;;3.55;2.00;;;;;;;;;;3617565;39;20363;-58
2021/05/06 02:39:39;;;;;;;4.45;2.00;;;;;;;;;;3617259;39;20039;-58
2021/05/06 02:42:04;;;;;;;3.72;2.08;;;;;;;;;;3616550;39;20094;-58
2021/05/06 02:44:33;;;;;;;2.83;1.73;;;;;;;;;;3616871;39;20031;-58
2021/05/06 02:46:59;;;;;;;2.90;1.70;;;;;;;;;;3617030;39;20056;-58
2021/05/06 02:49:24;;;;;;;3.05;1.52;;;;;;;;;;3616681;39;20130;-58
2021/05/06 02:51:52;;;;;;;4.15;1.92;;;;;;;;;;3616981;39;20027;-58
2021/05/06 02:54:18;;;;;;;3.10;1.67;;;;;;;;;;3617360;39;20071;-57
2021/05/06 03:05:09;;;;;;;3.90;1.67;;;;;;;;;;3616510;39;20034;-57
2021/05/06 03:07:37;;;;;;;6.13;2.42;;;;;;;;;;3616856;39;20031;-58
2021/05/06 03:23:02;;;;;;;4.25;1.75;;;;;;;;;;3617129;39;20386;-57
2021/05/06 03:25:29;;;;;;;6.43;2.20;;;;;;;;;;3616724;39;20027;-58
2021/05/06 03:34:39;;;;;;;5.10;2.20;;;;;;;;;;3614721;39;20051;-58
2021/05/06 03:44:18;;;;;;;4.20;1.95;;;;;;;;;;3617609;39;20031;-57
2021/05/06 04:21:30;;;;;;;4.22;2.33;;;;;;;;;;3616733;39;20035;-58
2021/05/06 04:22:22;;;;;;;5.10;2.05;;;;;;;;;;3616556;39;20031;-59
2021/05/06 04:27:55;;;;;;;4.53;2.30;;;;;;;;;;3615782;39;20063;-58
2021/05/06 04:36:20;;;;;;;6.85;3.10;;;;;;;;;;3583825;40;20036;-58
2021/05/06 04:38:46;;;;;;;9.45;3.45;;;;;;;;;;3605882;39;20039;-58
2021/05/06 04:44:27;;;;;;;4.95;2.65;;;;;;;;;;3615272;39;20034;-58
2021/05/06 04:55:05;;;;;;;7.20;2.60;;;;;;;;;;3616428;39;20115;-58
2021/05/06 05:05:25;;;;;;;5.07;2.13;;;;;;;;;;3616713;39;20461;-57
2021/05/06 05:07:55;;;;;;;5.70;2.55;;;;;;;;;;3617828;39;20158;-58
2021/05/06 05:10:29;;;;;;;10.50;2.83;;;;;;;;;;3618036;39;20425;-57
2021/05/06 05:23:42;;;;;;;5.68;2.78;;;;;;;;;;3562934;39;20030;-58
2021/05/06 05:26:10;;;;;;;4.68;2.40;;;;;;;;;;3616408;39;20027;-57
2021/05/06 05:28:37;;;;;;;4.38;2.50;;;;;;;;;;3608616;39;20032;-58
2021/05/06 05:31:02;;;;;;;8.25;2.80;;;;;;;;;;3617450;39;20268;-57
2021/05/06 05:33:31;;;;;;;6.10;2.60;;;;;;;;;;3617771;39;20034;-57
2021/05/06 05:36:14;;;;;;;5.30;2.88;;;;;;;;;;3617927;39;20072;-57
2021/05/06 05:54:32;;;;;;;7.22;3.05;;;;;;;;;;3607747;39;20042;-58
2021/05/06 05:54:37;;;;;;;7.40;3.30;;;;;;;;;;3617611;39;20477;-58
2021/05/06 05:57:08;;;;;;;10.23;3.13;;;;;;;;;;3617472;39;20530;-56
2021/05/06 05:59:34;;;;;;;7.57;2.50;;;;;;;;;;3616621;39;20043;-57
2021/05/06 06:01:59;;;;;;;4.38;2.70;;;;;;;;;;3615770;39;20383;-58
2021/05/06 06:04:25;;;;;;;5.95;3.15;;;;;;;;;;3615839;39;20042;-55
2021/05/06 06:06:50;;;;;;;5.60;3.03;;;;;;;;;;3617949;39;20023;-58
2021/05/06 06:09:16;;;;;;;4.32;2.88;;;;;;;;;;3617853;39;20185;-57
2021/05/06 06:11:41;;;;;;;5.32;2.55;;;;;;;;;;3614588;39;20728;-58
2021/05/06 06:14:07;;;;;;;8.95;3.15;;;;;;;;;;3617403;39;20035;-58
2021/05/06 06:16:34;;;;;;;9.27;3.13;;;;;;;;;;3617647;39;20038;-56
2021/05/06 06:19:01;;;;;;;10.40;3.05;;;;;;;;;;3616875;39;20035;-58
2021/05/06 06:21:32;;;;;;;6.63;3.13;;;;;;;;;;3617614;39;20054;-58
2021/05/06 06:23:58;;;;;;;;;;;;;;;;;;3618121;39;20027;-58
2021/05/06 06:26:23;;;;;;;6.18;3.08;;;;;;;;;;3617559;39;20020;-59
2021/05/06 06:28:52;;;;;;;4.88;2.60;;;;;;;;;;3617135;39;20343;-58
2021/05/06 06:31:27;;;;;;;7.65;3.08;;;;;;;;;;3617926;39;20055;-57
2021/05/06 06:33:52;;;;;;;9.60;3.25;;;;;;;;;;3617100;39;20512;-57
2021/05/06 06:36:18;;;;;;;5.13;2.60;;;;;;;;;;3617124;39;20042;-57
2021/05/06 06:38:47;;;;;;;8.38;2.40;;;;;;;;;;3617398;39;20043;-58
2021/05/06 06:41:13;;;;;;;6.47;2.80;;;;;;;;;;3617519;39;20339;-58
2021/05/06 06:43:46;;;;;;;5.75;2.45;;;;;;;;;;3617315;39;20042;-59
2021/05/06 06:46:12;;;;;;;7.93;2.80;;;;;;;;;;3616776;39;20038;-58
2021/05/06 06:48:37;;;;;;;9.23;2.67;;;;;;;;;;3598650;39;20031;-59
2021/05/06 06:51:04;;;;;;;7.63;3.08;;;;;;;;;;3617453;39;20031;-58
2021/05/06 06:53:29;;;;;;;6.25;2.55;;;;;;;;;;3614468;39;20359;-58
2021/05/06 06:55:56;;;;;;;8.10;2.40;;;;;;;;;;3617534;39;20059;-58
2021/05/06 06:58:22;;;;;;;9.73;2.58;;;;;;;;;;3617146;39;20043;-58
2021/05/06 07:00:47;;;;;;;6.25;2.45;;;;;;;;;;3616772;39;20079;-58
2021/05/06 07:03:13;;;;;;;9.20;2.42;;;;;;;;;;3616655;39;20075;-58
2021/05/06 07:05:41;;;;;;;6.45;2.53;;;;;;;;;;3607706;39;20047;-59
2021/05/06 07:08:21;;;;;;;8.10;2.33;;;;;;;;;;3616419;39;20027;-59
2021/05/06 07:10:48;;;;;;;8.68;2.90;;;;;;;;;;3616057;39;20043;-58
2021/05/06 07:13:16;;;;;;;5.78;2.45;;;;;;;;;;3608349;39;20067;-57
2021/05/06 07:15:45;;;;;;;8.77;2.90;;;;;;;;;;3616860;39;20027;-59
2021/05/06 07:18:10;;;;;;;5.28;2.50;;;;;;;;;;3616867;39;20037;-59
2021/05/06 07:20:36;;;;;;;10.00;3.25;;;;;;;;;;3617063;39;20027;-59
2021/05/06 07:23:01;;;;;;;7.45;3.10;;;;;;;;;;3616507;39;20047;-58
2021/05/06 07:25:27;;;;;;;9.00;2.83;;;;;;;;;;3617069;39;20042;-58
2021/05/06 07:27:52;;;;;;;5.40;3.00;;;;;;;;;;3616394;39;20111;-58
2021/05/06 07:30:18;;;;;;;6.28;2.83;;;;;;;;;;3617297;39;20042;-58
2021/05/06 07:32:44;;;;;;;6.47;2.55;;;;;;;;;;3616683;39;20047;-59
2021/05/06 07:35:11;;;;;;;8.00;3.00;;;;;;;;;;3616895;39;20043;-59
2021/05/06 07:37:37;;;;;;;7.72;3.28;;;;;;;;;;3617124;39;20067;-59
2021/05/06 07:40:03;;;;;;;7.82;3.38;;;;;;;;;;3617084;39;20355;-58
2021/05/06 07:42:29;;;;;;;6.70;2.72;;;;;;;;;;3616513;39;20026;-59
2021/05/06 07:44:54;;;;;;;6.00;2.80;;;;;;;;;;3617268;39;20780;-59
2021/05/06 07:47:19;;;;;;;6.32;2.80;;;;;;;;;;3617223;39;20108;-59
2021/05/06 07:49:49;;;;;;;7.13;2.75;;;;;;;;;;3616957;39;20402;-59
2021/05/06 07:52:16;;;;;;;6.38;2.80;;;;;;;;;;3616396;39;20046;-58
2021/05/06 07:54:41;;;;;;;12.32;3.00;;;;;;;;;;3616599;39;20035;-58
2021/05/06 07:57:06;;;;;;;6.18;2.45;;;;;;;;;;3617330;39;20051;-59
2021/05/06 07:59:32;;;;;;;5.47;2.63;;;;;;;;;;3616337;39;20031;-59
2021/05/06 08:01:59;;;;;;;4.72;2.25;;;;;;;;;;3617038;39;20347;-59
2021/05/06 08:04:25;;;;;;;8.48;2.60;;;;;;;;;;3616675;39;20030;-59
2021/05/06 08:06:50;;;;;;;6.28;3.00;;;;;;;;;;3616098;39;20027;-58
2021/05/06 08:09:16;;;;;;;4.88;2.50;;;;;;;;;;3616818;39;20039;-58
2021/05/06 08:11:41;;;;;;;4.80;2.47;;;;;;;;;;3616723;39;20028;-58
2021/05/06 08:14:07;;;;;;;8.80;3.67;;;;;;;;;;3616623;39;20393;-59
2021/05/06 08:16:32;;;;;;;4.80;2.35;;;;;;;;;;3616010;39;20112;-58
2021/05/06 08:18:57;;;;;;;6.70;2.85;;;;;;;;;;3616829;39;20039;-58
2021/05/06 08:21:24;;;;;;;6.55;2.60;;;;;;;;;;3615405;39;20028;-58
2021/05/06 08:23:50;;;;;;;5.10;2.35;;;;;;;;;;3615622;39;20072;-59
2021/05/06 08:26:15;;;;;;;7.18;3.08;;;;;;;;;;3616613;39;20024;-58
2021/05/06 08:28:41;;;;;;;5.95;2.20;;;;;;;;;;3616421;39;20340;-59
2021/05/06 08:31:06;;;;;;;6.65;2.80;;;;;;;;;;3616957;39;20023;-59
2021/05/06 08:33:32;;;;;;;7.25;2.53;;;;;;;;;;3616115;39;20031;-58
2021/05/06 08:35:57;;;;;;;5.25;2.38;;;;;;;;;;3616685;39;20034;-57
2021/05/06 08:38:22;;;;;;;4.30;2.42;;;;;;;;;;3616887;39;20112;-59
2021/05/06 08:40:52;;;;;;;4.60;2.55;;;;;;;;;;3616805;39;20034;-58
2021/05/06 08:43:19;;;;;;;9.40;2.88;;;;;;;;;;3616149;39;20031;-58
2021/05/06 08:45:49;;;;;;;7.97;2.22;;;;;;;;;;3616920;39;20478;-58
2021/05/06 08:48:16;;;;;;;5.70;2.58;;;;;;;;;;3617014;39;20052;-58
2021/05/06 08:50:43;;;;;;;10.65;2.83;;;;;;;;;;3616218;39;20047;-60
2021/05/06 08:53:09;;;;;;;6.70;3.05;;;;;;;;;;3616594;39;20042;-58
2021/05/06 08:55:35;;;;;;;6.15;2.83;;;;;;;;;;3606308;39;20104;-59
2021/05/06 08:58:00;;;;;;;5.45;2.30;;;;;;;;;;3616477;39;20361;-59
2021/05/06 09:00:26;;;;;;;6.95;3.35;;;;;;;;;;3616428;39;20036;-58
2021/05/06 09:02:51;;;;;;;6.28;2.83;;;;;;;;;;3607599;39;20241;-58
2021/05/06 09:05:17;;;;;;;8.93;6.10;;;;;;;;;;3616756;39;20073;-56
2021/05/06 09:07:46;;;;;;;9.43;3.95;;;;;;;;;;3615653;39;20126;-58
2021/05/06 09:10:36;;;;;;;5.78;2.78;;;;;;;;;;3616224;39;20136;-58
2021/05/06 09:13:03;;;;;;;6.70;3.28;;;;;;;;;;3616379;39;20051;-59
2021/05/06 09:15:29;;;;;;;6.43;3.28;;;;;;;;;;3616298;39;20090;-58
2021/05/06 09:17:54;;;;;;;9.95;3.25;;;;;;;;;;3615127;39;20151;-58
2021/05/06 09:20:28;;;;;;;13.00;3.03;;;;;;;;;;3616272;39;20051;-57
2021/05/06 09:22:56;;;;;;;5.85;3.03;;;;;;;;;;3606728;39;20035;-58
2021/05/06 09:25:27;;;;;;;7.47;3.45;;;;;;;;;;3615451;39;20027;-58
2021/05/06 09:28:02;;;;;;;5.50;2.47;;;;;;;;;;3615925;39;20321;-59
2021/05/06 09:30:27;;;;;;;6.97;3.42;;;;;;;;;;3616310;39;20035;-58
2021/05/06 09:33:03;;;;;;;6.80;2.88;;;;;;;;;;3616460;39;20081;-59
2021/05/06 09:35:28;;;;;;;6.03;2.97;;;;;;;;;;3615656;39;20055;-58
2021/05/06 09:37:54;;;;;;;5.43;3.35;;;;;;;;;;3616332;39;20431;-59
2021/05/06 09:40:19;;;;;;;6.15;3.42;;;;;;;;;;3616583;39;20543;-59
2021/05/06 09:42:50;;;;;;;5.82;2.97;;;;;;;;;;3607022;39;20067;-59
2021/05/06 09:45:25;;;;;;;8.85;4.03;;;;;;;;;;3614929;39;20054;-59
2021/05/06 09:48:09;;;;;;;4.88;2.53;;;;;;;;;;3617769;39;20370;-59
2021/05/06 09:50:36;;;;;;;6.15;2.95;;;;;;;;;;3616939;39;20042;-59
2021/05/06 09:53:09;;;;;;;6.35;3.40;;;;;;;;;;3617524;39;20035;-59
2021/05/06 09:55:35;;;;;;;8.05;3.80;;;;;;;;;;3616702;39;20061;-59
2021/05/06 09:58:31;;;;;;;8.60;3.22;;;;;;;;;;3607306;39;20075;-59
2021/05/06 10:00:58;;;;;;;6.00;3.20;;;;;;;;;;3608912;39;20648;-58
2021/05/06 10:03:32;;;;;;;5.93;2.80;;;;;;;;;;3607854;39;20092;-59
2021/05/06 10:06:10;;;;;;;5.75;2.78;;;;;;;;;;3617511;39;20301;-59
2021/05/06 10:08:39;;;;;;;4.85;3.20;;;;;;;;;;3617065;39;20047;-59
2021/05/06 10:11:15;;;;;;;6.32;3.08;;;;;;;;;;3617523;39;20035;-59
2021/05/06 10:13:43;;;;;;;6.50;3.00;;;;;;;;;;3617524;39;20035;-59
2021/05/06 10:16:10;;;;;;;8.98;3.88;;;;;;;;;;3617836;39;20203;-59
2021/05/06 10:18:41;;;;;;;6.35;2.80;;;;;;;;;;3613930;39;20087;-59
2021/05/06 10:21:08;;;;;;;5.07;2.92;;;;;;;;;;3617157;39;20034;-59
2021/05/06 10:23:34;;;;;;;3.97;2.25;;;;;;;;;;3617150;39;20123;-59
2021/05/06 10:26:01;;;;;;;3.70;2.42;;;;;;;;;;3617139;39;20043;-58
2021/05/06 10:28:26;;;;;;;4.72;2.90;;;;;;;;;;3616385;39;20526;-59
2021/05/06 10:30:53;;;;;;;5.30;3.20;;;;;;;;;;3617316;39;20067;-59
2021/05/06 10:33:25;;;;;;;5.47;2.97;;;;;;;;;;3617111;39;20040;-59
2021/05/06 10:35:50;;;;;;;5.43;2.90;;;;;;;;;;3617347;39;20431;-59
2021/05/06 10:38:16;;;;;;;4.93;2.78;;;;;;;;;;3615830;39;20035;-59
2021/05/06 10:40:42;;;;;;;6.32;2.70;;;;;;;;;;3616811;39;20030;-59
2021/05/06 10:43:22;;;;;;;4.65;2.83;;;;;;;;;;3617208;39;20056;-59
2021/05/06 10:46:04;;;;;;;6.03;2.95;;;;;;;;;;3616935;39;20547;-59
2021/05/06 10:49:02;;;;;;;8.80;2.75;;;;;;;;;;3616063;39;20040;-59
2021/05/06 10:51:48;;;;;;;5.07;2.42;;;;;;;;;;3616635;39;20051;-59
2021/05/06 10:54:30;;;;;;;6.93;3.17;;;;;;;;;;3616064;39;20093;-59
2021/05/06 10:57:19;;;;;;;5.43;3.05;;;;;;;;;;3616467;39;20062;-59
2021/05/06 10:59:49;;;;;;;5.45;2.45;;;;;;;;;;3609964;39;20290;-59
2021/05/06 11:02:33;;;;;;;4.95;2.60;;;;;;;;;;3615831;39;20047;-59
2021/05/06 11:05:12;;;;;;;6.18;2.58;;;;;;;;;;3617127;39;20382;-59
2021/05/06 11:07:38;;;;;;;5.60;2.40;;;;;;;;;;3616575;39;20047;-59
2021/05/06 11:10:04;;;;;;;4.50;2.53;;;;;;;;;;3616964;39;20042;-59
2021/05/06 11:12:32;;;;;;;5.20;2.58;;;;;;;;;;3617585;39;20035;-59
2021/05/06 11:15:00;;;;;;;4.20;2.35;;;;;;;;;;3616755;39;20291;-59
2021/05/06 11:17:39;;;;;;;6.60;2.83;;;;;;;;;;3615960;39;20261;-59
2021/05/06 11:20:10;;;;;;;5.75;2.70;;;;;;;;;;3616709;39;20031;-59
2021/05/06 11:22:46;;;;;;;4.03;2.55;;;;;;;;;;3607613;39;20342;-59
2021/05/06 11:25:31;;;;;;;3.45;2.28;;;;;;;;;;3616691;39;20033;-59
2021/05/06 11:28:26;;;;;;;4.03;2.33;;;;;;;;;;3616828;39;20273;-59
2021/05/06 11:30:53;;;;;;;4.60;2.50;;;;;;;;;;3617001;39;20043;-59
2021/05/06 11:33:19;;;;;;;5.20;2.22;;;;;;;;;;3617339;39;20047;-59
2021/05/06 11:36:07;;;;;;;3.90;2.15;;;;;;;;;;3617036;39;20463;-59
2021/05/06 11:38:36;;;;;;;4.85;2.15;;;;;;;;;;3616650;39;20083;-59
2021/05/06 11:41:16;;;;;;;4.30;2.63;;;;;;;;;;3616708;39;20400;-59
2021/05/06 11:43:46;;;;;;;8.40;3.53;;;;;;;;;;3617327;39;20051;-59
2021/05/06 11:46:39;;;;;;;4.30;2.78;;;;;;;;;;3616126;39;20129;-59
2021/05/06 11:49:11;;;;;;;6.75;3.97;;;;;;;;;;3616851;39;20072;-59
2021/05/06 11:51:37;;;;;;;6.30;3.10;;;;;;;;;;3616166;39;20087;-59
2021/05/06 11:54:27;;;;;;;5.18;3.05;;;;;;;;;;3616580;39;20317;-59
2021/05/06 11:56:57;;;;;;;6.40;3.22;;;;;;;;;;3616923;39;20031;-59
2021/05/06 11:59:25;;;;;;;4.72;2.50;;;;;;;;;;3616894;39;20419;-59
2021/05/06 12:01:52;;;;;;;4.15;2.10;;;;;;;;;;3616776;39;20031;-59
2021/05/06 12:04:32;;;;;;;4.28;2.58;;;;;;;;;;3615810;39;20035;-59
2021/05/06 12:06:58;;;;;;;6.70;2.70;;;;;;;;;;3616824;39;20035;-59
2021/05/06 12:09:29;;;;;;;4.72;2.72;;;;;;;;;;3614917;39;20035;-59
2021/05/06 12:11:55;;;;;;;4.80;3.20;;;;;;;;;;3607841;39;20074;-59
2021/05/06 12:14:38;;;;;;;5.57;3.15;;;;;;;;;;3615987;39;20034;-59
2021/05/06 12:17:07;;;;;;;15.18;2.78;;;;;;;;;;3616784;39;20032;-59
2021/05/06 12:19:43;;;;;;;6.20;3.05;;;;;;;;;;3615620;39;20034;-59
2021/05/06 12:22:09;;;;;;;4.55;2.67;;;;;;;;;;3615343;39;20032;-59
2021/05/06 12:24:47;;;;;;;4.28;2.83;;;;;;;;;;3616936;39;20124;-59
2021/05/06 12:27:29;;;;;;;4.88;2.83;;;;;;;;;;3616512;39;20030;-59
2021/05/06 12:29:58;;;;;;;7.35;2.83;;;;;;;;;;3616219;39;20230;-59
2021/05/06 12:32:34;;;;;;;6.18;3.25;;;;;;;;;;3616044;39;20112;-59
2021/05/06 12:35:00;;;;;;;5.30;2.70;;;;;;;;;;3616948;39;20067;-59
2021/05/06 12:37:28;;;;;;;3.80;2.33;;;;;;;;;;3616550;39;20374;-59
2021/05/06 12:39:56;;;;;;;6.63;2.92;;;;;;;;;;3615748;39;20035;-59
2021/05/06 12:42:40;;;;;;;7.55;3.28;;;;;;;;;;3615364;39;20117;-59
2021/05/06 12:45:24;;;;;;;7.28;3.40;;;;;;;;;;3606210;39;20039;-59
2021/05/06 12:47:50;;;;;;;4.80;3.13;;;;;;;;;;3615807;39;20047;-59
2021/05/06 12:50:20;;;;;;;6.93;3.00;;;;;;;;;;3615200;39;20070;-60
2021/05/06 12:52:50;;;;;;;11.27;3.03;;;;;;;;;;3615878;39;20039;-59
2021/05/06 12:55:15;;;;;;;5.60;3.15;;;;;;;;;;3615890;39;20054;-59
2021/05/06 12:57:42;;;;;;;8.65;2.70;;;;;;;;;;3614762;39;20366;-59
2021/05/06 13:00:19;;;;;;;4.47;2.63;;;;;;;;;;3615686;39;20038;-59
2021/05/06 13:02:44;;;;;;;6.13;2.65;;;;;;;;;;3615820;39;20040;-59
2021/05/06 13:05:10;;;;;;;9.07;3.25;;;;;;;;;;3616806;39;20355;-59
2021/05/06 13:07:50;;;;;;;5.13;2.80;;;;;;;;;;3615596;39;20027;-59
2021/05/06 13:10:39;;;;;;;5.93;3.33;;;;;;;;;;3616417;39;20042;-59
2021/05/06 13:13:06;;;;;;;4.38;2.97;;;;;;;;;;3616512;39;20035;-59
2021/05/06 13:15:49;;;;;;;5.63;3.00;;;;;;;;;;3616276;39;20035;-59
2021/05/06 13:18:15;;;;;;;5.00;3.20;;;;;;;;;;3616275;39;20050;-59
2021/05/06 13:20:42;;;;;;;5.18;2.97;;;;;;;;;;3616755;39;20301;-59
2021/05/06 13:23:10;;;;;;;7.28;3.72;;;;;;;;;;3618100;39;20064;-59
2021/05/06 13:25:49;;;;;;;4.95;3.35;;;;;;;;;;3615513;39;20043;-59
2021/05/06 13:28:19;;;;;;;6.68;3.47;;;;;;;;;;3617240;39;20381;-59
2021/05/06 13:30:46;;;;;;;6.05;3.45;;;;;;;;;;3616490;39;20075;-59
2021/05/06 13:33:18;;;;;;;10.68;5.22;;;;;;;;;;3617215;39;20035;-59
2021/05/06 13:36:03;;;;;;;8.48;3.40;;;;;;;;;;3616963;39;20059;-59
2021/05/06 13:38:51;;;;;;;8.45;7.05;;;;;;;;;;3614285;39;20113;-59
2021/05/06 13:41:18;;;;;;;5.22;3.25;;;;;;;;;;3616925;39;20031;-59
2021/05/06 13:43:44;;;;;;;8.68;3.78;;;;;;;;;;3617424;39;20042;-59
2021/05/06 13:46:10;;;;;;;8.27;3.60;;;;;;;;;;3617012;39;20039;-59
2021/05/06 13:48:36;;;;;;;7.22;4.00;;;;;;;;;;3608243;39;20039;-59
2021/05/06 13:51:08;;;;;;;8.02;4.45;;;;;;;;;;3616603;39;20043;-59
2021/05/06 13:53:34;;;;;;;10.43;3.78;;;;;;;;;;3616629;39;20577;-60
2021/05/06 13:55:59;;;;;;;7.85;4.93;;;;;;;;;;3617605;39;20063;-59
2021/05/06 13:58:25;;;;;;;7.38;4.65;;;;;;;;;;3616748;39;20389;-59
2021/05/06 14:00:50;;;;;;;15.20;5.47;;;;;;;;;;3617817;39;20043;-60
2021/05/06 14:03:15;;;;;;;8.73;4.30;;;;;;;;;;3617745;39;20390;-60
2021/05/06 14:05:41;;;;;;;10.23;3.80;;;;;;;;;;3617061;39;20378;-61
2021/05/06 14:08:06;;;;;;;7.10;4.00;;;;;;;;;;3616869;39;20039;-61
2021/05/06 14:10:32;;;;;;;6.30;3.42;;;;;;;;;;3617473;39;20035;-61
2021/05/06 14:12:57;;;;;;;4.97;3.35;;;;;;;;;;3616301;39;20035;-60
2021/05/06 14:15:23;;;;;;;7.90;4.30;;;;;;;;;;3616810;39;20035;-61
2021/05/06 14:17:48;;;;;;;8.30;4.25;;;;;;;;;;3617636;39;20045;-61
2021/05/06 14:20:13;;;;;;;7.68;4.43;;;;;;;;;;3617361;39;20263;-61
2021/05/06 14:22:39;;;;;;;11.27;4.88;;;;;;;;;;3616958;39;20413;-61
2021/05/06 14:25:05;;;;;;;15.18;5.13;;;;;;;;;;3617068;39;20031;-61
2021/05/06 14:27:33;;;;;;;8.32;5.30;;;;;;;;;;3613656;39;20071;-61
2021/05/06 14:29:59;;;;;;;8.23;4.65;;;;;;;;;;3616428;39;20522;-60
2021/05/06 14:32:24;;;;;;;10.75;5.50;;;;;;;;;;3612928;39;20047;-61
2021/05/06 14:34:50;;;;;;;9.05;5.10;;;;;;;;;;3613434;39;20035;-61
2021/05/06 14:37:15;;;;;;;8.45;4.60;;;;;;;;;;3616181;39;20051;-61
2021/05/06 14:39:41;;;;;;;6.55;4.07;;;;;;;;;;3615249;39;20027;-61
2021/05/06 14:42:06;;;;;;;5.05;3.90;;;;;;;;;;3615589;39;20042;-61
2021/05/06 14:44:31;;;;;;;6.80;4.40;;;;;;;;;;3615578;39;20090;-61
2021/05/06 14:46:57;;;;;;;7.90;4.35;;;;;;;;;;3615679;39;20055;-61
2021/05/06 14:49:22;;;;;;;6.88;3.67;;;;;;;;;;3615359;39;20140;-61
2021/05/06 14:51:47;;;;;;;4.63;3.38;;;;;;;;;;3616107;39;20358;-61
2021/05/06 14:54:13;;;;;;;4.35;3.03;;;;;;;;;;3615853;39;20039;-61
2021/05/06 14:56:38;;;;;;;6.90;3.67;;;;;;;;;;3615063;39;20100;-61
2021/05/06 14:59:04;;;;;;;6.93;3.97;;;;;;;;;;3613699;39;20139;-61
2021/05/06 15:01:32;;;;;;;9.15;4.22;;;;;;;;;;3603635;39;20051;-61
2021/05/06 15:03:57;;;;;;;10.20;4.15;;;;;;;;;;3614399;39;20492;-61
2021/05/06 15:06:23;;;;;;;7.82;4.15;;;;;;;;;;3614039;39;20135;-61
2021/05/06 15:08:48;;;;;;;6.70;4.40;;;;;;;;;;3614214;39;20050;-61
2021/05/06 15:11:16;;;;;;;6.28;4.05;;;;;;;;;;3614724;39;20039;-61
2021/05/06 15:13:42;;;;;;;10.48;4.63;;;;;;;;;;3614464;39;20042;-61
2021/05/06 15:16:07;;;;;;;7.15;4.75;;;;;;;;;;3614547;39;20368;-60
2021/05/06 15:18:32;;;;;;;8.52;5.75;;;;;;;;;;3606442;39;20796;-61
2021/05/06 15:20:58;;;;;;;9.65;5.63;;;;;;;;;;3614359;39;20042;-60
2021/05/06 15:23:24;;;;;;;8.50;5.32;;;;;;;;;;3612960;39;20159;-60
2021/05/06 15:25:49;;;;;;;10.90;5.97;;;;;;;;;;3613053;39;20039;-61
2021/05/06 15:28:15;;;;;;;8.70;5.82;;;;;;;;;;3613324;39;20043;-61
2021/05/06 15:30:41;;;;;;;12.18;6.80;;;;;;;;;;3613218;39;20049;-61
2021/05/06 15:33:06;;;;;;;7.88;5.18;;;;;;;;;;3614718;39;20303;-61
2021/05/06 15:35:31;;;;;;;10.18;5.22;;;;;;;;;;3613080;39;20093;-61
2021/05/06 15:37:57;;;;;;;14.40;6.22;;;;;;;;;;3615372;39;20032;-61
2021/05/06 15:40:22;;;;;;;7.20;5.10;;;;;;;;;;3614023;39;20054;-60
2021/05/06 15:42:48;;;;;;;9.15;5.47;;;;;;;;;;3614816;39;20062;-60
2021/05/06 15:45:14;;;;;;;8.93;4.82;;;;;;;;;;3615546;39;20080;-60
2021/05/06 15:47:39;;;;;;;6.88;5.20;;;;;;;;;;3605593;39;20379;-61
2021/05/06 15:50:08;;;;;;;9.20;5.50;;;;;;;;;;3615260;39;20051;-61
2021/05/06 15:52:33;;;;;;;10.00;5.88;;;;;;;;;;3614770;39;20031;-61
2021/05/06 15:54:59;;;;;;;8.55;4.35;;;;;;;;;;3613624;39;20075;-61
2021/05/06 15:57:25;;;;;;;9.82;3.95;;;;;;;;;;3613807;39;20027;-61
2021/05/06 15:59:50;;;;;;;4.80;3.08;;;;;;;;;;3615306;39;20028;-60
2021/05/06 16:02:17;;;;;;;6.40;2.80;;;;;;;;;;3615267;39;20045;-60
2021/05/06 16:04:42;;;;;;;6.10;3.28;;;;;;;;;;3614930;39;20027;-61
2021/05/06 16:07:08;;;;;;;6.05;3.80;;;;;;;;;;3615799;39;20035;-61
2021/05/06 16:09:33;;;;;;;4.72;2.55;;;;;;;;;;3615298;39;20031;-61
2021/05/06 16:11:59;;;;;;;4.68;3.10;;;;;;;;;;3605282;39;20050;-59
2021/05/06 16:14:24;;;;;;;4.40;2.72;;;;;;;;;;3613570;39;20080;-59
2021/05/06 16:16:49;;;;;;;5.38;2.55;;;;;;;;;;3615219;39;20027;-61
2021/05/06 16:19:16;;;;;;;4.32;2.58;;;;;;;;;;3614217;39;20698;-61
2021/05/06 16:21:42;;;;;;;4.45;2.50;;;;;;;;;;3614833;39;20046;-59
2021/05/06 16:24:08;;;;;;;6.35;2.90;;;;;;;;;;3615650;39;20031;-60
2021/05/06 16:26:34;;;;;;;5.50;2.85;;;;;;;;;;3614832;39;20362;-60
2021/05/06 16:29:00;;;;;;;6.13;3.17;;;;;;;;;;3602723;39;20570;-60
2021/05/06 16:31:25;;;;;;;4.13;2.72;;;;;;;;;;3612543;39;20027;-61
2021/05/06 16:33:57;;;;;;;6.53;2.72;;;;;;;;;;3614283;39;20035;-60
2021/05/06 16:36:43;;;;;;;5.78;3.55;;;;;;;;;;3612496;39;20043;-60
2021/05/06 16:41:49;;;;;;;6.03;2.97;;;;;;;;;;3611445;39;20055;-60
2021/05/06 16:44:28;;;;;;;4.00;2.65;;;;;;;;;;3611099;39;20031;-61
2021/05/06 16:47:02;;;;;;;5.43;2.45;;;;;;;;;;3614031;39;20038;-62
2021/05/06 16:49:29;;;;;;;6.03;2.70;;;;;;;;;;3614286;39;20043;-61
2021/05/06 16:51:54;;;;;;;3.90;2.80;;;;;;;;;;3614178;39;20023;-62
2021/05/06 16:54:20;;;;;;;5.90;2.25;;;;;;;;;;3605363;39;20392;-60
2021/05/06 16:56:52;;;;;;;4.72;2.30;;;;;;;;;;3616603;39;20061;-61
2021/05/06 16:59:18;;;;;;;6.22;2.53;;;;;;;;;;3616098;39;20118;-63
2021/05/06 17:01:44;;;;;;;6.20;2.33;;;;;;;;;;3606355;39;20035;-63
2021/05/06 17:04:10;;;;;;;6.78;2.20;;;;;;;;;;3616372;39;20038;-62
2021/05/06 17:06:36;;;;;;;5.15;2.80;;;;;;;;;;3615977;39;20050;-62
2021/05/06 17:09:04;;;;;;;6.70;2.75;;;;;;;;;;3616186;39;20031;-63
2021/05/06 17:11:29;;;;;;;6.00;2.80;;;;;;;;;;3615525;39;20023;-62
2021/05/06 17:13:55;;;;;;;3.80;2.40;;;;;;;;;;3616232;39;20050;-62
2021/05/06 17:16:20;;;;;;;7.18;2.70;;;;;;;;;;3615946;39;20077;-62
2021/05/06 17:18:46;;;;;;;6.03;2.85;;;;;;;;;;3614950;39;20354;-63
2021/05/06 17:21:12;;;;;;;5.20;2.55;;;;;;;;;;3616210;39;20038;-63
2021/05/06 17:23:38;;;;;;;6.78;2.80;;;;;;;;;;3615960;39;20035;-63
2021/05/06 17:26:03;;;;;;;6.43;2.70;;;;;;;;;;3615622;39;20031;-62
2021/05/06 17:28:29;;;;;;;6.25;2.63;;;;;;;;;;3614905;39;20148;-62
2021/05/06 17:30:55;;;;;;;5.13;2.65;;;;;;;;;;3615867;39;20389;-62
2021/05/06 17:33:21;;;;;;;4.57;2.78;;;;;;;;;;3616029;39;20047;-61
2021/05/06 17:35:46;;;;;;;7.05;2.92;;;;;;;;;;3614668;39;20035;-62
2021/05/06 17:38:12;;;;;;;5.47;2.75;;;;;;;;;;3605109;39;20031;-62
2021/05/06 17:40:37;;;;;;;9.10;2.65;;;;;;;;;;3615187;39;20119;-62
2021/05/06 17:43:03;;;;;;;3.53;2.67;;;;;;;;;;3616187;39;20036;-62
2021/05/06 17:45:28;;;;;;;7.22;2.45;;;;;;;;;;3615239;39;20067;-63
2021/05/06 17:47:54;;;;;;;5.70;2.40;;;;;;;;;;3615369;39;20034;-62
2021/05/06 17:50:24;;;;;;;5.93;2.17;;;;;;;;;;3615921;39;20035;-63
2021/05/06 17:52:50;;;;;;;5.65;2.67;;;;;;;;;;3615295;39;20046;-61
2021/05/06 17:55:15;;;;;;;3.95;2.25;;;;;;;;;;3615907;39;20047;-63
2021/05/06 17:57:40;;;;;;;5.38;2.58;;;;;;;;;;3615646;39;20086;-63
2021/05/06 18:00:07;;;;;;;5.20;2.85;;;;;;;;;;3614721;39;20340;-62
2021/05/06 18:02:32;;;;;;;4.57;2.30;;;;;;;;;;3615380;39;20043;-62
2021/05/06 18:04:58;;;;;;;3.88;2.03;;;;;;;;;;3615784;39;20371;-62
2021/05/06 18:07:23;;;;;;;3.45;1.85;;;;;;;;;;3615381;39;20084;-63
2021/05/06 18:10:02;;;;;;;3.83;2.03;;;;;;;;;;3606389;39;20046;-63